sensor_id;sensor_type;location;lat;lon;timestamp;P1;durP1;ratioP1;P2;durP2;ratioP2
70707;SDS011;58277;47.316;18.908;2023-06-14T00:00:00;9.77;;;4.78;;
70707;SDS011;58277;47.316;18.908;2023-06-14T00:02:23;8.93;;;4.78;;
70707;SDS011;58277;47.316;18.908;2023-06-14T00:04:46;8.60;;;4.75;;
70707;SDS011;58277;47.316;18.908;2023-06-14T00:07:10;7.43;;;4.90;;
70707;SDS011;58277;47.316;18.908;2023-06-14T00:09:36;8.55;;;4.50;;
70707;SDS011;58277;47.316;18.908;2023-06-14T00:11:59;7.25;;;4.82;;
70707;SDS011;58277;47.316;18.908;2023-06-14T00:14:21;7.55;;;4.40;;
70707;SDS011;58277;47.316;18.908;2023-06-14T00:16:44;9.73;;;4.93;;
70707;SDS011;58277;47.316;18.908;2023-06-14T00:19:08;8.50;;;4.90;;
70707;SDS011;58277;47.316;18.908;2023-06-14T00:21:32;6.78;;;4.50;;
70707;SDS011;58277;47.316;18.908;2023-06-14T00:23:55;8.43;;;4.78;;
70707;SDS011;58277;47.316;18.908;2023-06-14T00:26:19;8.05;;;4.70;;
70707;SDS011;58277;47.316;18.908;2023-06-14T00:28:42;9.77;;;4.35;;
70707;SDS011;58277;47.316;18.908;2023-06-14T00:31:05;7.40;;;4.27;;
70707;SDS011;58277;47.316;18.908;2023-06-14T00:33:27;10.30;;;4.28;;
70707;SDS011;58277;47.316;18.908;2023-06-14T00:35:50;6.63;;;4.50;;
70707;SDS011;58277;47.316;18.908;2023-06-14T00:38:16;7.05;;;4.80;;
70707;SDS011;58277;47.316;18.908;2023-06-14T00:40:38;7.75;;;4.50;;
70707;SDS011;58277;47.316;18.908;2023-06-14T00:43:01;8.93;;;4.40;;
70707;SDS011;58277;47.316;18.908;2023-06-14T00:45:24;7.85;;;4.20;;
70707;SDS011;58277;47.316;18.908;2023-06-14T00:47:47;8.10;;;4.75;;
70707;SDS011;58277;47.316;18.908;2023-06-14T00:50:11;9.25;;;4.70;;
70707;SDS011;58277;47.316;18.908;2023-06-14T00:52:35;9.32;;;4.55;;
70707;SDS011;58277;47.316;18.908;2023-06-14T00:54:58;7.80;;;4.63;;
70707;SDS011;58277;47.316;18.908;2023-06-14T00:57:21;7.40;;;4.78;;
70707;SDS011;58277;47.316;18.908;2023-06-14T00:59:44;9.18;;;5.30;;
70707;SDS011;58277;47.316;18.908;2023-06-14T01:02:09;9.15;;;4.60;;
70707;SDS011;58277;47.316;18.908;2023-06-14T01:04:32;8.95;;;4.90;;
70707;SDS011;58277;47.316;18.908;2023-06-14T01:12:50;8.73;;;5.15;;
70707;SDS011;58277;47.316;18.908;2023-06-14T01:15:18;8.48;;;5.15;;
70707;SDS011;58277;47.316;18.908;2023-06-14T01:17:44;8.45;;;5.10;;
70707;SDS011;58277;47.316;18.908;2023-06-14T01:20:12;7.73;;;4.97;;
70707;SDS011;58277;47.316;18.908;2023-06-14T01:22:37;8.60;;;5.20;;
70707;SDS011;58277;47.316;18.908;2023-06-14T01:25:05;8.32;;;5.40;;
70707;SDS011;58277;47.316;18.908;2023-06-14T01:27:28;8.75;;;5.32;;
70707;SDS011;58277;47.316;18.908;2023-06-14T01:29:52;9.02;;;5.30;;
70707;SDS011;58277;47.316;18.908;2023-06-14T01:32:18;9.17;;;4.77;;
70707;SDS011;58277;47.316;18.908;2023-06-14T01:34:41;8.30;;;5.28;;
70707;SDS011;58277;47.316;18.908;2023-06-14T01:37:04;9.48;;;5.38;;
70707;SDS011;58277;47.316;18.908;2023-06-14T01:39:28;10.52;;;4.90;;
70707;SDS011;58277;47.316;18.908;2023-06-14T01:41:51;10.27;;;5.22;;
70707;SDS011;58277;47.316;18.908;2023-06-14T01:44:14;9.00;;;5.13;;
70707;SDS011;58277;47.316;18.908;2023-06-14T01:46:40;11.57;;;4.88;;
70707;SDS011;58277;47.316;18.908;2023-06-14T01:49:04;11.77;;;5.30;;
70707;SDS011;58277;47.316;18.908;2023-06-14T01:51:28;9.98;;;5.35;;
70707;SDS011;58277;47.316;18.908;2023-06-14T01:53:51;9.40;;;5.60;;
70707;SDS011;58277;47.316;18.908;2023-06-14T01:56:13;11.20;;;5.30;;
70707;SDS011;58277;47.316;18.908;2023-06-14T01:58:36;9.07;;;4.93;;
70707;SDS011;58277;47.316;18.908;2023-06-14T02:00:59;9.57;;;5.13;;
70707;SDS011;58277;47.316;18.908;2023-06-14T02:03:23;10.80;;;5.28;;
70707;SDS011;58277;47.316;18.908;2023-06-14T02:05:47;9.77;;;4.93;;
70707;SDS011;58277;47.316;18.908;2023-06-14T02:08:10;10.70;;;5.27;;
70707;SDS011;58277;47.316;18.908;2023-06-14T02:10:32;10.63;;;5.60;;
70707;SDS011;58277;47.316;18.908;2023-06-14T02:12:57;10.85;;;5.70;;
70707;SDS011;58277;47.316;18.908;2023-06-14T02:15:20;12.07;;;5.57;;
70707;SDS011;58277;47.316;18.908;2023-06-14T02:17:44;9.95;;;5.57;;
70707;SDS011;58277;47.316;18.908;2023-06-14T02:20:07;10.60;;;5.70;;
70707;SDS011;58277;47.316;18.908;2023-06-14T02:22:31;9.98;;;5.40;;
70707;SDS011;58277;47.316;18.908;2023-06-14T02:24:54;10.48;;;5.57;;
70707;SDS011;58277;47.316;18.908;2023-06-14T02:27:24;11.55;;;6.13;;
70707;SDS011;58277;47.316;18.908;2023-06-14T02:29:46;13.38;;;6.10;;
70707;SDS011;58277;47.316;18.908;2023-06-14T02:32:09;10.27;;;5.13;;
70707;SDS011;58277;47.316;18.908;2023-06-14T02:34:34;11.45;;;5.40;;
70707;SDS011;58277;47.316;18.908;2023-06-14T02:36:56;13.38;;;5.50;;
70707;SDS011;58277;47.316;18.908;2023-06-14T02:39:20;12.75;;;5.90;;
70707;SDS011;58277;47.316;18.908;2023-06-14T02:41:45;12.23;;;5.60;;
70707;SDS011;58277;47.316;18.908;2023-06-14T02:44:09;13.00;;;5.97;;
70707;SDS011;58277;47.316;18.908;2023-06-14T02:46:34;11.50;;;5.60;;
70707;SDS011;58277;47.316;18.908;2023-06-14T02:48:56;12.55;;;5.70;;
70707;SDS011;58277;47.316;18.908;2023-06-14T02:51:19;12.48;;;5.93;;
70707;SDS011;58277;47.316;18.908;2023-06-14T02:53:42;12.38;;;5.85;;
70707;SDS011;58277;47.316;18.908;2023-06-14T02:56:06;11.03;;;5.43;;
70707;SDS011;58277;47.316;18.908;2023-06-14T02:58:28;13.35;;;6.05;;
70707;SDS011;58277;47.316;18.908;2023-06-14T03:00:52;13.98;;;6.63;;
70707;SDS011;58277;47.316;18.908;2023-06-14T03:03:15;12.50;;;5.85;;
70707;SDS011;58277;47.316;18.908;2023-06-14T03:05:46;13.23;;;5.68;;
70707;SDS011;58277;47.316;18.908;2023-06-14T03:08:15;11.37;;;5.60;;
70707;SDS011;58277;47.316;18.908;2023-06-14T03:10:45;15.00;;;5.95;;
70707;SDS011;58277;47.316;18.908;2023-06-14T03:13:09;13.63;;;6.28;;
70707;SDS011;58277;47.316;18.908;2023-06-14T03:15:33;12.05;;;5.53;;
70707;SDS011;58277;47.316;18.908;2023-06-14T03:17:57;15.18;;;5.93;;
70707;SDS011;58277;47.316;18.908;2023-06-14T03:20:21;13.47;;;5.90;;
70707;SDS011;58277;47.316;18.908;2023-06-14T03:22:45;14.63;;;5.90;;
70707;SDS011;58277;47.316;18.908;2023-06-14T03:28:13;14.85;;;5.65;;
70707;SDS011;58277;47.316;18.908;2023-06-14T03:30:36;12.80;;;6.15;;
70707;SDS011;58277;47.316;18.908;2023-06-14T03:32:59;14.53;;;6.50;;
70707;SDS011;58277;47.316;18.908;2023-06-14T03:35:24;13.77;;;6.00;;
70707;SDS011;58277;47.316;18.908;2023-06-14T03:37:47;22.10;;;6.50;;
70707;SDS011;58277;47.316;18.908;2023-06-14T03:40:11;13.25;;;6.53;;
70707;SDS011;58277;47.316;18.908;2023-06-14T03:42:37;13.63;;;6.20;;
70707;SDS011;58277;47.316;18.908;2023-06-14T03:45:00;13.67;;;6.50;;
70707;SDS011;58277;47.316;18.908;2023-06-14T03:47:23;13.43;;;6.10;;
70707;SDS011;58277;47.316;18.908;2023-06-14T03:49:46;15.05;;;7.07;;
70707;SDS011;58277;47.316;18.908;2023-06-14T03:52:09;14.32;;;6.38;;
70707;SDS011;58277;47.316;18.908;2023-06-14T03:54:34;14.43;;;6.30;;
70707;SDS011;58277;47.316;18.908;2023-06-14T03:57:00;13.67;;;5.67;;
70707;SDS011;58277;47.316;18.908;2023-06-14T03:59:23;14.30;;;5.88;;
70707;SDS011;58277;47.316;18.908;2023-06-14T04:01:48;14.90;;;6.75;;
70707;SDS011;58277;47.316;18.908;2023-06-14T04:04:11;12.50;;;5.90;;
70707;SDS011;58277;47.316;18.908;2023-06-14T04:06:34;14.60;;;6.32;;
70707;SDS011;58277;47.316;18.908;2023-06-14T04:08:59;15.57;;;6.53;;
70707;SDS011;58277;47.316;18.908;2023-06-14T04:11:26;12.85;;;6.05;;
70707;SDS011;58277;47.316;18.908;2023-06-14T04:13:49;12.90;;;6.05;;
70707;SDS011;58277;47.316;18.908;2023-06-14T04:16:11;15.25;;;6.15;;
70707;SDS011;58277;47.316;18.908;2023-06-14T04:18:34;15.07;;;6.75;;
70707;SDS011;58277;47.316;18.908;2023-06-14T04:20:57;14.13;;;6.33;;
70707;SDS011;58277;47.316;18.908;2023-06-14T04:23:20;14.82;;;6.25;;
70707;SDS011;58277;47.316;18.908;2023-06-14T04:25:44;15.38;;;6.68;;
70707;SDS011;58277;47.316;18.908;2023-06-14T04:28:12;14.32;;;6.07;;
70707;SDS011;58277;47.316;18.908;2023-06-14T04:30:38;14.55;;;6.15;;
70707;SDS011;58277;47.316;18.908;2023-06-14T04:33:02;15.73;;;6.20;;
70707;SDS011;58277;47.316;18.908;2023-06-14T04:35:28;14.15;;;6.57;;
70707;SDS011;58277;47.316;18.908;2023-06-14T04:37:51;13.10;;;6.35;;
70707;SDS011;58277;47.316;18.908;2023-06-14T04:40:17;15.63;;;6.30;;
70707;SDS011;58277;47.316;18.908;2023-06-14T04:42:40;13.15;;;6.30;;
70707;SDS011;58277;47.316;18.908;2023-06-14T04:45:05;17.33;;;6.73;;
70707;SDS011;58277;47.316;18.908;2023-06-14T04:47:29;13.68;;;6.30;;
70707;SDS011;58277;47.316;18.908;2023-06-14T04:49:52;14.40;;;6.20;;
70707;SDS011;58277;47.316;18.908;2023-06-14T04:52:16;12.75;;;6.38;;
70707;SDS011;58277;47.316;18.908;2023-06-14T04:54:40;13.77;;;6.25;;
70707;SDS011;58277;47.316;18.908;2023-06-14T04:57:09;18.83;;;6.67;;
70707;SDS011;58277;47.316;18.908;2023-06-14T04:59:37;15.48;;;6.28;;
70707;SDS011;58277;47.316;18.908;2023-06-14T05:02:00;14.88;;;6.13;;
70707;SDS011;58277;47.316;18.908;2023-06-14T05:04:23;13.20;;;6.18;;
70707;SDS011;58277;47.316;18.908;2023-06-14T05:06:45;14.02;;;6.20;;
70707;SDS011;58277;47.316;18.908;2023-06-14T05:09:11;14.63;;;6.60;;
70707;SDS011;58277;47.316;18.908;2023-06-14T05:11:35;12.98;;;6.22;;
70707;SDS011;58277;47.316;18.908;2023-06-14T05:13:59;13.65;;;6.25;;
70707;SDS011;58277;47.316;18.908;2023-06-14T05:16:21;12.05;;;6.50;;
70707;SDS011;58277;47.316;18.908;2023-06-14T05:18:45;14.02;;;6.40;;
70707;SDS011;58277;47.316;18.908;2023-06-14T05:21:09;14.07;;;6.87;;
70707;SDS011;58277;47.316;18.908;2023-06-14T05:23:33;12.98;;;6.05;;
70707;SDS011;58277;47.316;18.908;2023-06-14T05:25:56;12.82;;;6.20;;
70707;SDS011;58277;47.316;18.908;2023-06-14T05:28:19;13.38;;;6.05;;
70707;SDS011;58277;47.316;18.908;2023-06-14T05:30:43;14.65;;;6.10;;
70707;SDS011;58277;47.316;18.908;2023-06-14T05:33:06;13.43;;;6.37;;
70707;SDS011;58277;47.316;18.908;2023-06-14T05:35:29;11.27;;;5.78;;
70707;SDS011;58277;47.316;18.908;2023-06-14T05:37:52;11.57;;;5.63;;
70707;SDS011;58277;47.316;18.908;2023-06-14T05:40:16;13.70;;;6.30;;
70707;SDS011;58277;47.316;18.908;2023-06-14T05:42:39;11.55;;;6.18;;
70707;SDS011;58277;47.316;18.908;2023-06-14T05:45:02;12.17;;;6.07;;
70707;SDS011;58277;47.316;18.908;2023-06-14T05:47:25;12.27;;;6.00;;
70707;SDS011;58277;47.316;18.908;2023-06-14T05:49:49;11.88;;;6.20;;
70707;SDS011;58277;47.316;18.908;2023-06-14T05:52:12;12.88;;;6.47;;
70707;SDS011;58277;47.316;18.908;2023-06-14T05:54:35;13.45;;;6.32;;
70707;SDS011;58277;47.316;18.908;2023-06-14T05:56:58;12.80;;;5.93;;
70707;SDS011;58277;47.316;18.908;2023-06-14T05:59:24;12.05;;;5.93;;
70707;SDS011;58277;47.316;18.908;2023-06-14T06:01:47;14.07;;;5.80;;
70707;SDS011;58277;47.316;18.908;2023-06-14T06:04:10;13.65;;;6.22;;
70707;SDS011;58277;47.316;18.908;2023-06-14T06:06:33;10.50;;;5.68;;
70707;SDS011;58277;47.316;18.908;2023-06-14T06:08:57;12.00;;;5.50;;
70707;SDS011;58277;47.316;18.908;2023-06-14T06:11:20;11.00;;;5.63;;
70707;SDS011;58277;47.316;18.908;2023-06-14T06:13:47;14.07;;;5.40;;
70707;SDS011;58277;47.316;18.908;2023-06-14T06:16:09;11.52;;;5.53;;
70707;SDS011;58277;47.316;18.908;2023-06-14T06:18:32;10.85;;;5.60;;
70707;SDS011;58277;47.316;18.908;2023-06-14T06:20:55;10.77;;;5.60;;
70707;SDS011;58277;47.316;18.908;2023-06-14T06:23:18;10.70;;;5.78;;
70707;SDS011;58277;47.316;18.908;2023-06-14T06:25:41;10.27;;;5.50;;
70707;SDS011;58277;47.316;18.908;2023-06-14T06:28:04;11.23;;;6.15;;
70707;SDS011;58277;47.316;18.908;2023-06-14T06:30:27;15.45;;;6.00;;
70707;SDS011;58277;47.316;18.908;2023-06-14T06:32:51;11.83;;;5.47;;
70707;SDS011;58277;47.316;18.908;2023-06-14T06:35:14;14.48;;;5.75;;
70707;SDS011;58277;47.316;18.908;2023-06-14T06:37:37;12.82;;;5.90;;
70707;SDS011;58277;47.316;18.908;2023-06-14T06:40:01;15.20;;;5.78;;
70707;SDS011;58277;47.316;18.908;2023-06-14T06:42:24;10.70;;;4.90;;
70707;SDS011;58277;47.316;18.908;2023-06-14T06:44:47;8.97;;;4.87;;
70707;SDS011;58277;47.316;18.908;2023-06-14T06:47:10;10.50;;;5.40;;
70707;SDS011;58277;47.316;18.908;2023-06-14T06:49:33;8.98;;;4.60;;
70707;SDS011;58277;47.316;18.908;2023-06-14T06:52:02;9.77;;;4.90;;
70707;SDS011;58277;47.316;18.908;2023-06-14T06:54:27;11.32;;;5.43;;
70707;SDS011;58277;47.316;18.908;2023-06-14T06:56:50;11.30;;;5.17;;
70707;SDS011;58277;47.316;18.908;2023-06-14T06:59:13;9.63;;;4.55;;
70707;SDS011;58277;47.316;18.908;2023-06-14T07:01:36;8.88;;;4.88;;
70707;SDS011;58277;47.316;18.908;2023-06-14T07:03:58;11.18;;;5.15;;
70707;SDS011;58277;47.316;18.908;2023-06-14T07:06:21;12.18;;;5.25;;
70707;SDS011;58277;47.316;18.908;2023-06-14T07:08:45;9.93;;;5.60;;
70707;SDS011;58277;47.316;18.908;2023-06-14T07:11:08;9.98;;;5.00;;
70707;SDS011;58277;47.316;18.908;2023-06-14T07:13:31;10.68;;;5.10;;
70707;SDS011;58277;47.316;18.908;2023-06-14T07:15:54;11.32;;;5.63;;
70707;SDS011;58277;47.316;18.908;2023-06-14T07:18:19;10.98;;;5.80;;
70707;SDS011;58277;47.316;18.908;2023-06-14T07:20:43;10.20;;;5.40;;
70707;SDS011;58277;47.316;18.908;2023-06-14T07:23:05;9.05;;;5.20;;
70707;SDS011;58277;47.316;18.908;2023-06-14T07:25:28;11.02;;;5.65;;
70707;SDS011;58277;47.316;18.908;2023-06-14T07:27:51;10.05;;;5.30;;
70707;SDS011;58277;47.316;18.908;2023-06-14T07:30:15;10.10;;;5.07;;
70707;SDS011;58277;47.316;18.908;2023-06-14T07:32:38;11.67;;;5.50;;
70707;SDS011;58277;47.316;18.908;2023-06-14T07:35:01;9.23;;;5.20;;
70707;SDS011;58277;47.316;18.908;2023-06-14T07:37:24;9.82;;;5.00;;
70707;SDS011;58277;47.316;18.908;2023-06-14T07:39:46;9.52;;;5.35;;
70707;SDS011;58277;47.316;18.908;2023-06-14T07:42:09;9.00;;;5.13;;
70707;SDS011;58277;47.316;18.908;2023-06-14T07:44:33;10.77;;;4.80;;
70707;SDS011;58277;47.316;18.908;2023-06-14T07:46:56;9.88;;;4.80;;
70707;SDS011;58277;47.316;18.908;2023-06-14T07:49:22;9.32;;;4.63;;
70707;SDS011;58277;47.316;18.908;2023-06-14T07:51:45;10.65;;;4.40;;
70707;SDS011;58277;47.316;18.908;2023-06-14T07:54:09;9.02;;;4.78;;
70707;SDS011;58277;47.316;18.908;2023-06-14T07:56:32;8.47;;;4.40;;
70707;SDS011;58277;47.316;18.908;2023-06-14T07:58:54;7.68;;;4.38;;
70707;SDS011;58277;47.316;18.908;2023-06-14T08:01:17;8.50;;;4.40;;
70707;SDS011;58277;47.316;18.908;2023-06-14T08:03:42;6.38;;;4.07;;
70707;SDS011;58277;47.316;18.908;2023-06-14T08:06:05;8.52;;;4.75;;
70707;SDS011;58277;47.316;18.908;2023-06-14T08:08:29;7.63;;;4.27;;
70707;SDS011;58277;47.316;18.908;2023-06-14T08:10:53;8.77;;;4.47;;
70707;SDS011;58277;47.316;18.908;2023-06-14T08:13:15;7.60;;;4.20;;
70707;SDS011;58277;47.316;18.908;2023-06-14T08:15:38;7.88;;;4.03;;
70707;SDS011;58277;47.316;18.908;2023-06-14T08:18:01;8.60;;;4.20;;
70707;SDS011;58277;47.316;18.908;2023-06-14T08:20:24;11.97;;;4.60;;
70707;SDS011;58277;47.316;18.908;2023-06-14T08:22:47;8.85;;;4.60;;
70707;SDS011;58277;47.316;18.908;2023-06-14T08:25:10;11.07;;;4.60;;
70707;SDS011;58277;47.316;18.908;2023-06-14T08:27:35;7.80;;;4.38;;
70707;SDS011;58277;47.316;18.908;2023-06-14T08:29:58;7.75;;;4.75;;
70707;SDS011;58277;47.316;18.908;2023-06-14T08:32:20;8.13;;;4.50;;
70707;SDS011;58277;47.316;18.908;2023-06-14T08:34:43;8.32;;;4.57;;
70707;SDS011;58277;47.316;18.908;2023-06-14T08:37:21;7.47;;;4.30;;
70707;SDS011;58277;47.316;18.908;2023-06-14T08:39:44;7.88;;;4.25;;
70707;SDS011;58277;47.316;18.908;2023-06-14T08:42:07;5.55;;;4.00;;
70707;SDS011;58277;47.316;18.908;2023-06-14T08:44:48;7.13;;;3.83;;
70707;SDS011;58277;47.316;18.908;2023-06-14T08:47:11;6.30;;;4.18;;
70707;SDS011;58277;47.316;18.908;2023-06-14T08:49:36;6.30;;;3.92;;
70707;SDS011;58277;47.316;18.908;2023-06-14T08:52:00;7.70;;;3.85;;
70707;SDS011;58277;47.316;18.908;2023-06-14T08:54:27;7.82;;;4.00;;
70707;SDS011;58277;47.316;18.908;2023-06-14T08:56:53;7.47;;;3.73;;
70707;SDS011;58277;47.316;18.908;2023-06-14T08:59:19;7.78;;;4.45;;
70707;SDS011;58277;47.316;18.908;2023-06-14T09:01:44;6.15;;;4.07;;
70707;SDS011;58277;47.316;18.908;2023-06-14T09:04:28;7.20;;;4.20;;
70707;SDS011;58277;47.316;18.908;2023-06-14T09:06:51;6.00;;;4.15;;
70707;SDS011;58277;47.316;18.908;2023-06-14T09:09:15;8.07;;;3.83;;
70707;SDS011;58277;47.316;18.908;2023-06-14T09:11:37;8.18;;;4.00;;
70707;SDS011;58277;47.316;18.908;2023-06-14T09:14:00;8.88;;;4.10;;
70707;SDS011;58277;47.316;18.908;2023-06-14T09:16:24;7.57;;;3.92;;
70707;SDS011;58277;47.316;18.908;2023-06-14T09:18:47;9.15;;;4.28;;
70707;SDS011;58277;47.316;18.908;2023-06-14T09:21:11;7.00;;;4.03;;
70707;SDS011;58277;47.316;18.908;2023-06-14T09:23:38;6.82;;;3.90;;
70707;SDS011;58277;47.316;18.908;2023-06-14T09:26:06;7.50;;;4.18;;
70707;SDS011;58277;47.316;18.908;2023-06-14T09:28:30;9.80;;;5.68;;
70707;SDS011;58277;47.316;18.908;2023-06-14T09:30:54;7.15;;;4.65;;
70707;SDS011;58277;47.316;18.908;2023-06-14T09:33:17;10.53;;;4.30;;
70707;SDS011;58277;47.316;18.908;2023-06-14T09:35:40;8.88;;;4.22;;
70707;SDS011;58277;47.316;18.908;2023-06-14T09:38:03;7.72;;;5.00;;
70707;SDS011;58277;47.316;18.908;2023-06-14T09:40:27;8.93;;;5.47;;
70707;SDS011;58277;47.316;18.908;2023-06-14T09:42:50;6.28;;;4.18;;
70707;SDS011;58277;47.316;18.908;2023-06-14T09:45:13;6.27;;;3.40;;
70707;SDS011;58277;47.316;18.908;2023-06-14T09:47:41;8.50;;;3.78;;
70707;SDS011;58277;47.316;18.908;2023-06-14T09:50:25;5.90;;;3.20;;
70707;SDS011;58277;47.316;18.908;2023-06-14T09:52:48;9.68;;;3.47;;
70707;SDS011;58277;47.316;18.908;2023-06-14T09:55:35;7.75;;;3.78;;
70707;SDS011;58277;47.316;18.908;2023-06-14T09:58:00;7.80;;;4.17;;
70707;SDS011;58277;47.316;18.908;2023-06-14T10:00:26;6.25;;;4.13;;
70707;SDS011;58277;47.316;18.908;2023-06-14T10:02:54;9.38;;;3.78;;
70707;SDS011;58277;47.316;18.908;2023-06-14T10:05:23;5.07;;;3.03;;
70707;SDS011;58277;47.316;18.908;2023-06-14T10:07:53;4.70;;;3.08;;
70707;SDS011;58277;47.316;18.908;2023-06-14T10:10:18;6.93;;;3.60;;
70707;SDS011;58277;47.316;18.908;2023-06-14T10:12:41;5.65;;;3.50;;
70707;SDS011;58277;47.316;18.908;2023-06-14T10:15:04;5.90;;;3.88;;
70707;SDS011;58277;47.316;18.908;2023-06-14T10:20:13;5.15;;;3.67;;
70707;SDS011;58277;47.316;18.908;2023-06-14T10:22:46;5.80;;;3.70;;
70707;SDS011;58277;47.316;18.908;2023-06-14T10:25:12;8.07;;;5.03;;
70707;SDS011;58277;47.316;18.908;2023-06-14T10:27:48;6.70;;;3.58;;
70707;SDS011;58277;47.316;18.908;2023-06-14T10:30:11;7.90;;;3.40;;
70707;SDS011;58277;47.316;18.908;2023-06-14T10:33:02;6.57;;;3.63;;
70707;SDS011;58277;47.316;18.908;2023-06-14T10:35:33;6.37;;;3.20;;
70707;SDS011;58277;47.316;18.908;2023-06-14T10:38:05;6.32;;;3.22;;
70707;SDS011;58277;47.316;18.908;2023-06-14T10:40:32;8.15;;;3.22;;
70707;SDS011;58277;47.316;18.908;2023-06-14T10:42:56;6.25;;;3.38;;
70707;SDS011;58277;47.316;18.908;2023-06-14T10:45:19;5.60;;;3.22;;
70707;SDS011;58277;47.316;18.908;2023-06-14T10:47:41;7.70;;;3.57;;
70707;SDS011;58277;47.316;18.908;2023-06-14T10:50:05;4.50;;;3.25;;
70707;SDS011;58277;47.316;18.908;2023-06-14T10:52:31;5.55;;;3.17;;
70707;SDS011;58277;47.316;18.908;2023-06-14T10:57:26;5.65;;;3.60;;
70707;SDS011;58277;47.316;18.908;2023-06-14T10:59:49;7.57;;;3.37;;
70707;SDS011;58277;47.316;18.908;2023-06-14T11:05:14;6.43;;;3.95;;
70707;SDS011;58277;47.316;18.908;2023-06-14T11:08:07;5.55;;;3.17;;
70707;SDS011;58277;47.316;18.908;2023-06-14T11:10:46;5.78;;;3.13;;
70707;SDS011;58277;47.316;18.908;2023-06-14T11:13:09;6.27;;;3.30;;
70707;SDS011;58277;47.316;18.908;2023-06-14T11:15:33;5.85;;;3.38;;
70707;SDS011;58277;47.316;18.908;2023-06-14T11:17:57;6.20;;;3.53;;
70707;SDS011;58277;47.316;18.908;2023-06-14T11:20:26;7.53;;;3.58;;
70707;SDS011;58277;47.316;18.908;2023-06-14T11:22:50;8.50;;;3.83;;
70707;SDS011;58277;47.316;18.908;2023-06-14T11:25:13;7.47;;;3.77;;
70707;SDS011;58277;47.316;18.908;2023-06-14T11:27:37;6.07;;;3.40;;
70707;SDS011;58277;47.316;18.908;2023-06-14T11:30:00;5.20;;;3.33;;
70707;SDS011;58277;47.316;18.908;2023-06-14T11:32:25;6.07;;;3.90;;
70707;SDS011;58277;47.316;18.908;2023-06-14T11:34:48;5.90;;;3.25;;
70707;SDS011;58277;47.316;18.908;2023-06-14T11:37:11;8.37;;;4.13;;
70707;SDS011;58277;47.316;18.908;2023-06-14T11:39:34;7.05;;;3.42;;
70707;SDS011;58277;47.316;18.908;2023-06-14T11:41:57;5.82;;;3.35;;
70707;SDS011;58277;47.316;18.908;2023-06-14T11:44:23;6.40;;;3.20;;
70707;SDS011;58277;47.316;18.908;2023-06-14T11:46:46;4.72;;;3.35;;
70707;SDS011;58277;47.316;18.908;2023-06-14T11:49:09;6.40;;;3.47;;
70707;SDS011;58277;47.316;18.908;2023-06-14T11:51:35;5.47;;;3.25;;
70707;SDS011;58277;47.316;18.908;2023-06-14T11:53:58;4.00;;;2.85;;
70707;SDS011;58277;47.316;18.908;2023-06-14T11:56:21;4.63;;;3.03;;
70707;SDS011;58277;47.316;18.908;2023-06-14T11:58:44;6.28;;;3.30;;
70707;SDS011;58277;47.316;18.908;2023-06-14T12:01:07;4.63;;;3.20;;
70707;SDS011;58277;47.316;18.908;2023-06-14T12:03:30;4.68;;;3.20;;
70707;SDS011;58277;47.316;18.908;2023-06-14T12:06:05;6.32;;;3.55;;
70707;SDS011;58277;47.316;18.908;2023-06-14T12:08:35;4.85;;;3.22;;
70707;SDS011;58277;47.316;18.908;2023-06-14T12:11:03;5.00;;;3.05;;
70707;SDS011;58277;47.316;18.908;2023-06-14T12:13:25;4.17;;;2.80;;
70707;SDS011;58277;47.316;18.908;2023-06-14T12:15:56;4.60;;;3.20;;
70707;SDS011;58277;47.316;18.908;2023-06-14T12:18:19;5.38;;;3.35;;
70707;SDS011;58277;47.316;18.908;2023-06-14T12:20:43;5.35;;;3.20;;
70707;SDS011;58277;47.316;18.908;2023-06-14T12:23:12;4.95;;;3.35;;
70707;SDS011;58277;47.316;18.908;2023-06-14T12:25:35;8.73;;;4.70;;
70707;SDS011;58277;47.316;18.908;2023-06-14T12:28:09;6.15;;;3.45;;
70707;SDS011;58277;47.316;18.908;2023-06-14T12:30:32;3.95;;;2.92;;
70707;SDS011;58277;47.316;18.908;2023-06-14T12:32:55;5.00;;;3.22;;
70707;SDS011;58277;47.316;18.908;2023-06-14T12:35:19;10.25;;;3.20;;
70707;SDS011;58277;47.316;18.908;2023-06-14T12:37:42;10.00;;;3.10;;
70707;SDS011;58277;47.316;18.908;2023-06-14T12:40:05;11.23;;;3.08;;
70707;SDS011;58277;47.316;18.908;2023-06-14T12:42:28;13.25;;;3.67;;
70707;SDS011;58277;47.316;18.908;2023-06-14T12:44:51;8.90;;;3.30;;
70707;SDS011;58277;47.316;18.908;2023-06-14T12:47:13;5.60;;;3.53;;
70707;SDS011;58277;47.316;18.908;2023-06-14T12:49:36;7.80;;;3.70;;
70707;SDS011;58277;47.316;18.908;2023-06-14T12:51:59;21.42;;;4.05;;
70707;SDS011;58277;47.316;18.908;2023-06-14T12:54:22;11.10;;;3.50;;
70707;SDS011;58277;47.316;18.908;2023-06-14T12:57:01;7.22;;;3.03;;
70707;SDS011;58277;47.316;18.908;2023-06-14T12:59:25;9.30;;;3.28;;
70707;SDS011;58277;47.316;18.908;2023-06-14T13:01:48;5.47;;;2.90;;
70707;SDS011;58277;47.316;18.908;2023-06-14T13:04:12;4.00;;;3.20;;
70707;SDS011;58277;47.316;18.908;2023-06-14T13:06:35;8.35;;;3.10;;
70707;SDS011;58277;47.316;18.908;2023-06-14T13:08:58;7.85;;;2.80;;
70707;SDS011;58277;47.316;18.908;2023-06-14T13:11:21;6.15;;;3.20;;
70707;SDS011;58277;47.316;18.908;2023-06-14T13:13:44;5.60;;;3.20;;
70707;SDS011;58277;47.316;18.908;2023-06-14T13:16:07;6.20;;;3.03;;
70707;SDS011;58277;47.316;18.908;2023-06-14T13:18:30;6.10;;;3.30;;
70707;SDS011;58277;47.316;18.908;2023-06-14T13:20:52;9.02;;;3.17;;
70707;SDS011;58277;47.316;18.908;2023-06-14T13:23:15;6.45;;;3.20;;
70707;SDS011;58277;47.316;18.908;2023-06-14T13:25:39;5.97;;;3.60;;
70707;SDS011;58277;47.316;18.908;2023-06-14T13:28:02;10.35;;;5.03;;
70707;SDS011;58277;47.316;18.908;2023-06-14T13:30:26;6.05;;;4.50;;
70707;SDS011;58277;47.316;18.908;2023-06-14T13:32:49;8.80;;;3.75;;
70707;SDS011;58277;47.316;18.908;2023-06-14T13:35:13;8.60;;;3.60;;
70707;SDS011;58277;47.316;18.908;2023-06-14T13:37:35;6.00;;;3.43;;
70707;SDS011;58277;47.316;18.908;2023-06-14T13:39:58;6.20;;;3.50;;
70707;SDS011;58277;47.316;18.908;2023-06-14T13:42:21;5.22;;;3.80;;
70707;SDS011;58277;47.316;18.908;2023-06-14T13:44:44;5.40;;;3.83;;
70707;SDS011;58277;47.316;18.908;2023-06-14T13:47:07;6.93;;;4.20;;
70707;SDS011;58277;47.316;18.908;2023-06-14T13:49:30;6.33;;;3.80;;
70707;SDS011;58277;47.316;18.908;2023-06-14T13:51:56;6.20;;;3.92;;
70707;SDS011;58277;47.316;18.908;2023-06-14T13:54:19;7.10;;;3.70;;
70707;SDS011;58277;47.316;18.908;2023-06-14T13:56:44;8.90;;;3.63;;
70707;SDS011;58277;47.316;18.908;2023-06-14T13:59:07;5.95;;;3.50;;
70707;SDS011;58277;47.316;18.908;2023-06-14T14:01:29;5.63;;;3.50;;
70707;SDS011;58277;47.316;18.908;2023-06-14T14:03:52;8.02;;;4.43;;
70707;SDS011;58277;47.316;18.908;2023-06-14T14:09:19;8.55;;;3.80;;
70707;SDS011;58277;47.316;18.908;2023-06-14T14:11:42;5.55;;;4.07;;
70707;SDS011;58277;47.316;18.908;2023-06-14T14:14:04;5.87;;;3.33;;
70707;SDS011;58277;47.316;18.908;2023-06-14T14:16:27;7.05;;;3.55;;
70707;SDS011;58277;47.316;18.908;2023-06-14T14:18:50;5.35;;;3.30;;
70707;SDS011;58277;47.316;18.908;2023-06-14T14:21:13;7.22;;;3.42;;
70707;SDS011;58277;47.316;18.908;2023-06-14T14:23:36;6.93;;;3.40;;
70707;SDS011;58277;47.316;18.908;2023-06-14T14:26:01;5.20;;;3.30;;
70707;SDS011;58277;47.316;18.908;2023-06-14T14:28:26;5.38;;;3.17;;
70707;SDS011;58277;47.316;18.908;2023-06-14T14:30:49;4.93;;;3.28;;